Station: Ngayawili (Elcho Island)  

  Atmospheric Gas Attenuation - ITU Rec 676-11   ----------------- dB/100km -----------------
Date Time Temp RH % AH g/m3 Dew Point Wind Direction Speed kph Gust kph Barometer mB Rainfall Since 9am 24GHz 47GHz 76GHz 122GHz 134GHz 241GHz
10/05 14:30 29.1 77 22.24 24.7 24 44 1010.1 0.4 47.4 44.0 88.0 233.0 261.4 908.6
10/05 14:20 29.6 75 22.26 24.7 28 35 1010.1 0.4 47.4 43.8 87.5 231.7 259.9 903.7
10/05 14:10 29.8 80 24 26 17 22 1010.2 0.4 51.0 47.1 95.8 253.6 286.9 997.3
10/05 14:00 28.5 81 22.64 24.9 19 35 1010.3 0.4 48.3 45.2 90.7 240.1 269.9 938.1
10/05 13:50 28 87 23.66 25.6 22 28 1010.3 0.4 50.5 47.5 96.4 255.3 288.4 1002.2
10/05 13:40 27.1 92 23.81 25.7 19 22 1010.5 0.4 51.0 48.3 98.3 260.5 294.5 1023.3
10/05 13:30 27.5 84 22.23 24.6 22 39 1010.7 0.2 47.6 44.9 89.9 238.0 267.0 928.0
10/05 13:20 28.3 80 22.12 24.5 20 32 1010.8 0 47.2 44.3 88.4 234.0 262.4 912.1
10/05 13:10 29.5 74 21.84 24.4 28 33 1010.9 0 46.5 43.1 85.7 226.8 253.9 882.6
10/05 13:00 29.9 74 22.32 24.8 22 35 1010.9 0 47.4 43.8 87.5 231.7 260.0 903.8
10/05 12:50 29.5 74 21.84 24.4 28 35 1010.9 0 46.5 43.1 85.7 226.8 253.9 882.6
10/05 12:40 29.3 76 22.19 24.6 24 39 1011.2 0 47.2 43.9 87.6 231.9 260.1 904.1
10/05 12:30 28.9 78 22.29 24.7 20 33 1011.3 0 47.5 44.3 88.5 234.4 263.1 914.5
10/05 12:20 28.8 81 23.02 25.2 20 26 1011.4 0 49.1 45.8 92.2 244.3 275.1 956.2
10/05 12:10 28.5 81 22.64 24.9 22 28 1011.6 0 48.3 45.2 90.7 240.3 270.1 938.9
10/05 12:00 28.1 82 22.42 24.7 24 39 1011.7 0 47.9 45.0 90.2 238.7 268.1 931.7
10/05 11:50 28.1 84 22.97 25.1 24 35 1011.8 0 49.0 46.1 92.9 246.0 277.0 962.6
10/05 11:40 28.5 83 23.2 25.3 26 35 1012.1 0 49.5 46.4 93.6 247.8 279.3 970.6
10/05 11:30 28.9 82 23.43 25.5 20 33 1012.3 0 49.9 46.6 94.2 249.5 281.5 978.4
10/05 11:20 28.4 82 22.8 25 22 28 1012.5 0 48.6 45.6 91.7 242.9 273.2 949.7
10/05 11:10 27.9 84 22.72 24.9 32 39 1012.7 0 48.5 45.8 92.0 243.5 273.8 951.6
10/05 11:00 28.8 83 23.58 25.6 22 39 1012.8 0 50.2 47.0 95.1 251.9 284.4 988.5
10/05 10:50 28.2 86 23.65 25.6 19 22 1013.1 0 50.5 47.5 96.3 254.9 288.0 1000.7
10/05 10:40 27.8 86 23.13 25.2 19 24 1012.9 0 49.4 46.6 94.1 249.3 280.9 976.2
10/05 10:30 27.8 84 22.6 24.8 22 35 1012.8 0 48.3 45.6 91.5 242.2 272.3 946.2
10/05 10:20 27.7 84 22.47 24.7 20 30 1012.8 0 48.0 45.4 91.0 240.9 270.5 940.2
10/05 10:10 27.6 84 22.35 24.6 19 26 1012.8 0 47.8 45.2 90.5 239.6 269.0 934.7
10/05 10:00 27.7 84 22.47 24.7 20 35 1012.8 0 48.0 45.4 91.0 240.9 270.5 940.2
10/05 09:50 27.6 85 22.61 24.8 15 20 1012.8 0 48.3 45.7 91.8 243.0 273.2 949.3
10/05 09:40 27.2 86 22.38 24.6 19 24 1012.8 0 47.9 45.5 91.1 241.3 270.9 941.4
10/05 09:30 27.2 87 22.64 24.8 22 35 1012.5 0 48.4 46.0 92.4 244.7 275.1 955.9
10/05 09:20 26.7 89 22.53 24.7 19 28 1012.5 0 48.3 46.0 92.5 244.8 275.2 956.1
10/05 09:10 26.7 92 23.29 25.3 17 22 1012.4 0 49.9 47.6 96.3 255.1 287.7 999.7
10/05 09:00 26.1 93 22.77 24.9 17 26 1012.6 0 48.9 46.9 94.5 250.1 281.4 977.7
10/05 08:50 26.1 92 22.52 24.7 22 28 1012.5 1.2 48.3 46.4 93.2 246.7 277.3 963.3
10/05 08:40 26.1 91 22.28 24.5 19 22 1012.4 1.2 47.8 45.9 92.0 243.4 273.3 949.4
10/05 08:30 25.9 91 22.03 24.3 17 28 1012.3 1.2 47.3 45.5 90.9 240.7 269.9 937.7
10/05 08:20 25.8 92 22.15 24.4 17 20 1012.3 1.2 47.6 45.8 91.7 242.7 272.2 945.8
10/05 08:10 25.8 94 22.63 24.8 13 17 1012.4 1.2 48.6 46.8 94.1 249.2 280.2 973.5
10/05 08:00 25.7 95 22.74 24.8 11 15 1012.4 1.2 48.9 47.0 94.8 251.0 282.4 981.2
10/05 07:50 25.6 95 22.62 24.7 11 15 1012 1.2 48.6 46.8 94.3 249.6 280.7 975.3
10/05 07:40 25.4 97 22.84 24.9 13 19 1012 1.2 49.1 47.4 95.7 253.3 285.2 990.7
10/05 07:30 25.3 98 22.94 25 13 24 1011.8 1.2 49.3 47.7 96.3 255.0 287.3 997.8
10/05 07:20 25.1 98 22.69 24.8 15 19 1011.7 1.2 48.8 47.2 95.3 252.2 283.8 985.8
10/05 07:10 24.9 98 22.43 24.6 15 17 1011.7 1.2 48.3 46.8 94.2 249.3 280.2 973.2
10/05 07:00 24.9 98 22.43 24.6 13 17 1011.6 1.2 48.3 46.8 94.2 249.3 280.2 973.2
10/05 06:50 24.9 97 22.2 24.4 9 11 1011.3 1 47.8 46.3 93.0 246.1 276.3 959.6
10/05 06:40 24.9 97 22.2 24.4 11 13 1011.1 1 47.8 46.3 92.9 246.1 276.2 959.5
10/05 06:30 24.9 97 22.2 24.4 11 17 1011 1 47.8 46.3 92.9 246.1 276.2 959.4
10/05 06:20 24.9 97 22.2 24.4 13 17 1010.9 1 47.8 46.3 92.9 246.1 276.2 959.3
10/05 06:10 24.8 97 22.08 24.3 15 17 1010.7 1 47.6 46.1 92.4 244.7 274.5 953.5
10/05 06:00 24.8 98 22.31 24.5 13 19 1010.7 1 48.1 46.6 93.6 247.9 278.4 966.9
10/05 05:50 24.8 97 22.08 24.3 15 17 1010.8 1 47.6 46.1 92.4 244.7 274.5 953.6
10/05 05:40 24.7 97 21.95 24.2 11 13 1010.9 1 47.3 45.9 91.9 243.3 272.8 947.4
10/05 05:30 24.7 97 21.95 24.2 15 22 1010.7 1 47.3 45.9 91.9 243.3 272.7 947.3
10/05 05:20 24.6 97 21.83 24.1 13 15 1010.6 1 47.1 45.7 91.4 242.0 271.1 941.6
10/05 05:10 24.6 98 22.06 24.3 24 30 1010.4 1 47.6 46.2 92.6 245.0 274.9 954.8
10/05 05:00 24.5 98 21.93 24.2 19 26 1010.3 1 47.3 46.0 92.0 243.6 273.1 948.5
10/05 04:50 24.5 98 21.93 24.2 17 20 1010.2 1 47.3 46.0 92.0 243.6 273.1 948.4
10/05 04:40 24.4 98 21.81 24.1 17 20 1010 1 47.1 45.8 91.5 242.2 271.4 942.6
10/05 04:30 24.4 98 21.81 24.1 15 20 1009.9 1 47.1 45.8 91.5 242.2 271.4 942.5
10/05 04:20 24.4 98 21.81 24.1 13 17 1009.9 1 47.1 45.8 91.5 242.2 271.4 942.5
10/05 04:10 24.4 98 21.81 24.1 11 15 1009.9 1 47.1 45.8 91.5 242.2 271.4 942.5
10/05 04:00 24.3 98 21.69 24 19 30 1009.8 1 46.8 45.6 91.0 240.9 269.7 936.8
10/05 03:50 24.3 98 21.69 24 17 19 1010 0.8 46.8 45.6 91.0 240.9 269.8 936.9
10/05 03:40 24.3 98 21.69 24 15 19 1010.4 0.8 46.8 45.6 91.0 241.0 269.8 937.2
10/05 03:30 24.3 98 21.69 24 17 24 1010.4 0.8 46.8 45.6 91.0 241.0 269.8 937.2
10/05 03:20 24.3 98 21.69 24 17 20 1010.3 0.8 46.8 45.6 91.0 241.0 269.8 937.1
10/05 03:10 24.3 98 21.69 24 19 24 1010.1 0.8 46.8 45.6 91.0 240.9 269.8 937.0
10/05 03:00 24.2 98 21.56 23.9 20 28 1010.1 0.6 46.5 45.4 90.5 239.5 268.0 930.7
10/05 02:50 24.2 98 21.56 23.9 20 26 1010.2 0.6 46.5 45.4 90.5 239.5 268.0 930.8
10/05 02:40 24.3 98 21.69 24 22 24 1010.3 0.6 46.8 45.6 91.0 241.0 269.8 937.1
10/05 02:30 24.3 98 21.69 24 19 28 1010.6 0.6 46.8 45.6 91.0 241.0 269.9 937.3
10/05 02:20 24.3 97 21.46 23.8 24 28 1010.8 0.6 46.3 45.1 89.9 237.9 266.1 924.1
10/05 02:10 24.3 98 21.69 24 19 24 1011 0.6 46.8 45.6 91.1 241.1 269.9 937.5
10/05 02:00 24.2 98 21.56 23.9 17 24 1011.1 0.6 46.5 45.4 90.5 239.7 268.2 931.3
10/05 01:50 24.1 98 21.44 23.8 15 20 1011 0.6 46.3 45.2 90.0 238.4 266.5 925.6
10/05 01:40 24.1 98 21.44 23.8 19 24 1010.9 0.6 46.3 45.2 90.0 238.3 266.5 925.5
10/05 01:30 24.1 98 21.44 23.8 19 30 1011 0.6 46.3 45.2 90.0 238.4 266.5 925.6
10/05 01:20 24.1 98 21.44 23.8 19 26 1011 0.6 46.3 45.2 90.0 238.4 266.5 925.6
10/05 01:10 24 98 21.32 23.7 17 20 1011 0.6 46.0 45.0 89.6 237.1 264.9 919.9
10/05 01:00 24 98 21.32 23.7 22 33 1010.9 0.6 46.0 45.0 89.5 237.0 264.9 919.9
10/05 00:50 24 98 21.32 23.7 19 24 1011 0.6 46.0 45.0 89.6 237.1 264.9 919.9
10/05 00:40 23.9 98 21.2 23.6 22 28 1011.2 0.6 45.8 44.8 89.1 235.8 263.3 914.4
10/05 00:30 23.9 98 21.2 23.6 22 35 1011.3 0.6 45.8 44.8 89.1 235.8 263.3 914.4
10/05 00:20 23.9 98 21.2 23.6 28 33 1011.4 0.6 45.8 44.9 89.1 235.8 263.3 914.5
10/05 00:10 23.9 98 21.2 23.6 22 33 1011.8 0.6 45.8 44.9 89.1 235.9 263.4 914.7
10/05 00:00 23.9 98 21.2 23.6 17 22 1012 0.6 45.8 44.9 89.1 235.9 263.4 914.9
09/05 23:50 23.9 98 21.2 23.6 15 20 1012.1 0.6 45.8 44.9 89.1 235.9 263.4 914.9
09/05 23:40 23.9 98 21.2 23.6 15 17 1012 0.6 45.8 44.9 89.1 235.9 263.4 914.9
09/05 23:30 23.9 98 21.2 23.6 17 24 1012.1 0.6 45.8 44.9 89.1 235.9 263.4 914.9
09/05 23:20 24 98 21.32 23.7 19 24 1012.1 0.6 46.0 45.1 89.6 237.2 265.1 920.6
09/05 23:10 24 97 21.1 23.5 19 22 1012.1 0.6 45.6 44.6 88.5 234.3 261.4 907.9
09/05 23:00 24.2 96 21.12 23.5 15 26 1012.1 0.4 45.6 44.6 88.4 233.9 261.0 906.6
09/05 22:50 24.1 97 21.22 23.6 17 19 1012.2 0.4 45.8 44.8 89.0 235.6 263.1 913.7
09/05 22:40 24.1 97 21.22 23.6 17 20 1012.3 0.4 45.8 44.8 89.0 235.6 263.1 913.7
09/05 22:30 24.2 96 21.12 23.5 20 33 1012.2 0.4 45.6 44.6 88.4 233.9 261.1 906.7
09/05 22:20 24.3 95 21.02 23.4 15 20 1012.3 0.4 45.4 44.3 87.8 232.3 259.1 899.8
09/05 22:10 24.5 94 21.04 23.5 26 32 1012.1 0.4 45.4 44.2 87.6 231.9 258.7 898.4
09/05 22:00 24.5 94 21.04 23.5 20 28 1012.1 0.4 45.4 44.2 87.6 231.9 258.7 898.4

Last Refresh: 10-May-2026 14:32:13

Bureau of Meteorology